createdAt,value
2018-12-13T00:01:19.784Z,41.37
2018-12-13T00:03:47.294Z,39.43
2018-12-13T00:06:14.810Z,39.27
2018-12-13T00:08:42.332Z,41.00
2018-12-13T00:11:10.012Z,39.30
2018-12-13T00:13:37.524Z,44.40
2018-12-13T00:16:05.042Z,37.47
2018-12-13T00:18:32.567Z,37.10
2018-12-13T00:21:00.087Z,40.17
2018-12-13T00:23:27.592Z,39.95
2018-12-13T00:25:55.201Z,40.40
2018-12-13T00:28:22.716Z,37.95
2018-12-13T00:30:50.238Z,35.15
2018-12-13T00:33:17.759Z,34.30
2018-12-13T00:35:45.282Z,37.13
2018-12-13T00:38:12.806Z,35.78
2018-12-13T00:40:40.323Z,38.10
2018-12-13T00:43:07.860Z,36.90
2018-12-13T00:45:35.375Z,39.20
2018-12-13T00:48:02.880Z,33.63
2018-12-13T00:50:30.393Z,37.27
2018-12-13T00:52:57.984Z,38.92
2018-12-13T00:55:25.565Z,33.48
2018-12-13T00:57:53.173Z,35.27
2018-12-13T01:00:20.691Z,37.38
2018-12-13T01:02:48.225Z,33.83
2018-12-13T01:05:15.747Z,34.27
2018-12-13T01:07:43.276Z,36.63
2018-12-13T01:10:10.872Z,34.70
2018-12-13T01:12:38.387Z,40.52
2018-12-13T01:15:05.902Z,37.25
2018-12-13T01:17:33.427Z,33.00
2018-12-13T01:20:00.949Z,35.60
2018-12-13T01:22:28.482Z,31.07
2018-12-13T01:24:55.986Z,28.55
2018-12-13T01:27:23.498Z,26.68
2018-12-13T01:29:51.046Z,26.75
2018-12-13T01:32:18.559Z,31.40
2018-12-13T01:34:46.075Z,30.70
2018-12-13T01:37:13.586Z,31.00
2018-12-13T01:39:41.169Z,31.65
2018-12-13T01:42:08.684Z,36.63
2018-12-13T01:44:36.197Z,37.40
2018-12-13T01:47:03.724Z,36.38
2018-12-13T01:49:31.232Z,36.68
2018-12-13T01:51:58.762Z,32.42
2018-12-13T01:54:26.305Z,33.85
2018-12-13T01:56:53.827Z,33.50
2018-12-13T01:59:21.360Z,32.33
2018-12-13T02:01:48.871Z,34.03
2018-12-13T02:04:16.395Z,33.23
2018-12-13T02:06:43.921Z,32.65
2018-12-13T02:09:11.500Z,31.45
2018-12-13T02:11:39.162Z,29.90
2018-12-13T02:14:06.687Z,33.20
2018-12-13T02:16:34.207Z,35.23
2018-12-13T02:19:01.752Z,30.68
2018-12-13T02:21:29.279Z,29.92
2018-12-13T02:23:56.829Z,31.12
2018-12-13T02:26:24.341Z,30.82
2018-12-13T02:28:51.851Z,28.15
2018-12-13T02:31:19.511Z,32.48
2018-12-13T02:33:47.062Z,30.82
2018-12-13T02:36:14.594Z,32.10
2018-12-13T02:38:42.168Z,33.08
2018-12-13T02:41:09.707Z,32.13
2018-12-13T02:43:37.227Z,29.67
2018-12-13T02:46:04.750Z,32.13
2018-12-13T02:48:32.267Z,26.90
2018-12-13T02:50:59.783Z,31.77
2018-12-13T02:53:27.313Z,30.25
2018-12-13T02:55:54.837Z,28.50
2018-12-13T02:58:22.515Z,29.80
2018-12-13T03:00:50.136Z,31.15
2018-12-13T03:03:17.670Z,30.08
2018-12-13T03:05:45.183Z,28.45
2018-12-13T03:08:12.716Z,27.67
2018-12-13T03:10:40.238Z,28.17
2018-12-13T03:13:07.836Z,27.32
2018-12-13T03:15:35.375Z,24.60
2018-12-13T03:18:02.945Z,26.93
2018-12-13T03:20:30.488Z,29.12
2018-12-13T03:22:58.032Z,23.62
2018-12-13T03:25:25.551Z,24.72
2018-12-13T03:27:53.094Z,26.37
2018-12-13T03:30:20.616Z,26.95
2018-12-13T03:32:48.133Z,27.05
2018-12-13T03:35:15.662Z,26.45
2018-12-13T03:37:43.197Z,26.23
2018-12-13T03:40:10.729Z,23.67
2018-12-13T03:42:38.333Z,23.50
2018-12-13T03:45:05.990Z,24.75
2018-12-13T03:47:33.518Z,23.55
2018-12-13T03:50:01.051Z,24.20
2018-12-13T03:52:28.572Z,24.52
2018-12-13T03:54:56.082Z,23.02
2018-12-13T03:57:23.703Z,21.52
2018-12-13T03:59:51.232Z,24.70
2018-12-13T04:02:18.777Z,21.60
2018-12-13T04:04:46.317Z,21.93
2018-12-13T04:07:13.845Z,25.75
2018-12-13T04:09:41.421Z,22.80
2018-12-13T04:12:08.954Z,22.62
2018-12-13T04:14:36.523Z,23.85
2018-12-13T04:17:04.051Z,24.57
2018-12-13T04:19:31.576Z,21.55
2018-12-13T04:22:00.970Z,21.62
2018-12-13T04:24:29.243Z,21.15
2018-12-13T04:26:56.878Z,24.00
2018-12-13T04:29:24.397Z,23.30
2018-12-13T04:31:51.931Z,24.60
2018-12-13T04:34:19.473Z,22.40
2018-12-13T04:36:47.115Z,22.15
2018-12-13T04:39:14.629Z,22.20
2018-12-13T04:41:42.239Z,23.95
2018-12-13T04:44:09.781Z,21.62
2018-12-13T04:46:37.335Z,23.60
2018-12-13T04:49:04.879Z,22.13
2018-12-13T04:51:32.413Z,22.77
2018-12-13T04:53:59.938Z,24.07
2018-12-13T04:56:27.461Z,27.60
2018-12-13T04:58:55.072Z,20.60
2018-12-13T05:01:22.667Z,21.82
2018-12-13T05:03:50.191Z,20.97
2018-12-13T05:06:17.719Z,24.32
2018-12-13T05:08:45.239Z,21.05
2018-12-13T05:11:12.771Z,24.32
2018-12-13T05:13:40.309Z,21.00
2018-12-13T05:16:07.874Z,20.37
2018-12-13T05:18:35.389Z,21.68
2018-12-13T05:21:02.978Z,22.52
2018-12-13T05:23:30.523Z,21.52
2018-12-13T05:25:58.048Z,23.90
2018-12-13T05:28:25.560Z,21.25
2018-12-13T05:30:53.091Z,24.82
2018-12-13T05:33:20.629Z,24.98
2018-12-13T05:35:48.166Z,25.72
2018-12-13T05:38:15.695Z,22.42
2018-12-13T05:40:43.258Z,24.18
2018-12-13T05:43:10.791Z,22.80
2018-12-13T05:45:38.311Z,24.80
2018-12-13T05:48:05.886Z,23.35
2018-12-13T05:50:33.437Z,22.77
2018-12-13T05:53:00.957Z,23.60
2018-12-13T05:55:28.484Z,23.15
2018-12-13T05:57:56.050Z,21.62
2018-12-13T06:00:23.581Z,24.10
2018-12-13T06:02:51.175Z,23.62
2018-12-13T06:05:18.719Z,22.93
2018-12-13T06:07:46.227Z,22.17
2018-12-13T06:10:13.767Z,22.70
2018-12-13T06:12:41.295Z,24.65
2018-12-13T06:15:08.824Z,22.62
2018-12-13T06:17:36.340Z,23.62
2018-12-13T06:20:04.730Z,22.87
2018-12-13T06:22:32.446Z,24.95
2018-12-13T06:24:59.962Z,26.00
2018-12-13T06:27:27.480Z,26.05
2018-12-13T06:29:58.957Z,23.27
2018-12-13T06:32:24.608Z,24.57
2018-12-13T06:34:52.131Z,28.38
2018-12-13T06:37:19.681Z,22.37
2018-12-13T06:39:47.204Z,23.95
2018-12-13T06:42:14.715Z,23.60
2018-12-13T06:44:42.251Z,25.57
2018-12-13T06:47:09.769Z,24.82
2018-12-13T06:49:37.275Z,23.67
2018-12-13T06:52:04.799Z,27.02
2018-12-13T06:54:32.309Z,25.27
2018-12-13T06:57:00.632Z,28.05
2018-12-13T06:59:28.286Z,26.50
2018-12-13T07:01:55.806Z,26.35
2018-12-13T07:04:23.332Z,23.95
2018-12-13T07:06:50.861Z,24.52
2018-12-13T07:09:18.396Z,28.42
2018-12-13T07:11:45.909Z,29.82
2018-12-13T07:14:13.551Z,24.75
2018-12-13T07:16:41.073Z,28.12
2018-12-13T07:19:08.593Z,23.42
2018-12-13T07:21:36.115Z,30.25
2018-12-13T07:24:03.646Z,27.65
2018-12-13T07:26:31.236Z,26.35
2018-12-13T07:28:58.770Z,29.48
2018-12-13T07:31:26.307Z,28.35
2018-12-13T07:33:53.853Z,27.65
2018-12-13T07:36:21.385Z,28.20
2018-12-13T07:38:48.916Z,24.20
2018-12-13T07:41:16.448Z,28.60
2018-12-13T07:43:43.972Z,28.05
2018-12-13T07:46:11.493Z,24.27
2018-12-13T07:48:39.017Z,28.30
2018-12-13T07:51:06.542Z,31.02
2018-12-13T07:53:34.051Z,25.88
2018-12-13T07:56:01.588Z,28.70
2018-12-13T07:58:29.160Z,26.40
2018-12-13T08:00:56.683Z,26.75
2018-12-13T08:03:24.211Z,27.82
2018-12-13T08:05:51.754Z,26.10
2018-12-13T08:08:20.897Z,26.73
2018-12-13T08:10:48.823Z,27.13
2018-12-13T08:13:16.336Z,28.77
2018-12-13T08:15:43.864Z,30.08
2018-12-13T08:18:11.378Z,25.57
2018-12-13T08:20:38.904Z,29.67
2018-12-13T08:23:06.481Z,25.32
2018-12-13T08:25:34.003Z,28.47
2018-12-13T08:28:02.035Z,32.03
2018-12-13T08:30:29.663Z,30.52
2018-12-13T08:32:57.176Z,26.68
2018-12-13T08:35:24.797Z,31.42
2018-12-13T08:37:52.329Z,30.08
2018-12-13T08:40:19.859Z,30.55
2018-12-13T08:42:47.371Z,28.75
2018-12-13T08:45:14.901Z,30.17
2018-12-13T08:47:42.424Z,29.12
2018-12-13T08:50:09.944Z,31.85
2018-12-13T08:52:37.463Z,28.42
2018-12-13T08:55:04.995Z,29.90
2018-12-13T08:57:32.521Z,29.87
2018-12-13T09:00:00.036Z,29.00
2018-12-13T09:02:27.566Z,30.12
2018-12-13T09:04:55.094Z,31.23
2018-12-13T09:07:22.616Z,27.27
2018-12-13T09:09:50.138Z,29.80
2018-12-13T09:12:17.684Z,30.73
2018-12-13T09:14:45.220Z,33.23
2018-12-13T09:17:12.750Z,31.80
2018-12-13T09:19:40.273Z,32.85
2018-12-13T09:22:07.790Z,29.27
2018-12-13T09:24:35.378Z,30.25
2018-12-13T09:27:02.890Z,29.43
2018-12-13T09:29:30.405Z,32.00
2018-12-13T09:31:57.957Z,33.27
2018-12-13T09:34:25.477Z,33.15
2018-12-13T09:36:52.999Z,34.23
2018-12-13T09:39:20.514Z,34.00
2018-12-13T09:41:48.047Z,35.13
2018-12-13T09:44:16.918Z,34.97
2018-12-13T09:46:44.444Z,34.03
2018-12-13T09:49:11.971Z,34.50
2018-12-13T09:51:39.475Z,37.17
2018-12-13T09:54:06.979Z,38.43
2018-12-13T09:56:34.599Z,33.63
2018-12-13T09:59:02.123Z,34.37
2018-12-13T10:01:29.631Z,36.40
2018-12-13T10:03:57.143Z,38.53
2018-12-13T10:06:24.661Z,37.20
2018-12-13T10:08:52.165Z,36.27
2018-12-13T10:11:19.695Z,39.00
2018-12-13T10:13:47.226Z,34.57
2018-12-13T10:16:14.862Z,38.47
2018-12-13T10:18:42.386Z,36.87
2018-12-13T10:21:09.890Z,35.27
2018-12-13T10:23:37.403Z,41.23
2018-12-13T10:26:04.926Z,36.37
2018-12-13T10:28:32.525Z,33.37
2018-12-13T10:31:00.053Z,34.20
2018-12-13T10:33:27.609Z,32.57
2018-12-13T10:35:55.135Z,33.77
2018-12-13T10:38:22.639Z,31.43
2018-12-13T10:40:50.229Z,32.23
2018-12-13T10:43:17.748Z,31.80
2018-12-13T10:45:45.280Z,33.10
2018-12-13T10:48:12.793Z,30.80
2018-12-13T10:50:40.301Z,34.53
2018-12-13T10:53:07.817Z,30.17
2018-12-13T10:55:35.337Z,30.83
2018-12-13T10:58:02.851Z,30.10
2018-12-13T11:00:35.956Z,28.43
2018-12-13T11:03:20.257Z,29.37
2018-12-13T11:05:47.763Z,26.83
2018-12-13T11:08:15.269Z,29.30
2018-12-13T11:10:42.813Z,27.03
2018-12-13T11:13:10.325Z,24.37
2018-12-13T11:15:37.855Z,27.03
2018-12-13T11:18:05.363Z,23.77
2018-12-13T11:20:32.904Z,24.57
2018-12-13T11:23:00.413Z,23.47
2018-12-13T11:25:28.007Z,22.33
2018-12-13T11:30:54.382Z,22.23
2018-12-13T11:33:21.901Z,20.60
2018-12-13T11:35:49.404Z,22.37
2018-12-13T11:38:16.930Z,19.20
2018-12-13T11:40:44.450Z,21.20
2018-12-13T11:43:11.964Z,22.37
2018-12-13T11:45:39.479Z,20.50
2018-12-13T11:48:06.990Z,20.60
2018-12-13T11:50:34.768Z,22.23
2018-12-13T11:53:02.276Z,19.20
2018-12-13T11:55:31.975Z,19.67
2018-12-13T11:57:59.656Z,19.20
2018-12-13T12:00:27.240Z,20.80
2018-12-13T12:02:55.637Z,22.17
2018-12-13T12:05:23.221Z,22.37
2018-12-13T12:07:50.753Z,20.23
2018-12-13T12:10:18.265Z,23.43
2018-12-13T12:12:45.788Z,20.00
2018-12-13T12:15:13.331Z,20.63
2018-12-13T12:17:40.863Z,20.87
2018-12-13T12:20:08.393Z,20.90
2018-12-13T12:22:35.910Z,22.20
2018-12-13T12:25:04.492Z,18.93
2018-12-13T12:27:32.000Z,21.73
2018-12-13T12:29:59.513Z,20.70
2018-12-13T12:32:27.037Z,19.00
2018-12-13T12:34:54.580Z,17.37
2018-12-13T12:37:22.088Z,18.43
2018-12-13T12:39:49.618Z,17.77
2018-12-13T12:42:17.130Z,18.33
2018-12-13T12:44:44.642Z,19.53
2018-12-13T12:47:12.176Z,18.47
2018-12-13T12:49:39.695Z,20.63
2018-12-13T12:52:07.319Z,17.67
2018-12-13T12:54:34.832Z,20.30
2018-12-13T12:57:02.366Z,16.43
2018-12-13T12:59:29.883Z,18.33
2018-12-13T13:01:57.380Z,17.80
2018-12-13T13:04:24.896Z,19.17
2018-12-13T13:06:52.407Z,16.00
2018-12-13T13:09:25.022Z,17.20
2018-12-13T13:11:49.479Z,17.37
2018-12-13T13:14:16.982Z,16.73
2018-12-13T13:16:44.497Z,18.10
2018-12-13T13:19:12.013Z,17.13
2018-12-13T13:21:39.541Z,17.93
2018-12-13T13:24:07.057Z,19.87
2018-12-13T13:26:34.577Z,16.33
2018-12-13T13:29:02.090Z,16.30
2018-12-13T13:31:29.613Z,17.23
2018-12-13T13:33:57.147Z,16.60
2018-12-13T13:36:24.688Z,16.03
2018-12-13T13:38:52.213Z,17.77
2018-12-13T13:41:19.756Z,18.80
2018-12-13T13:43:47.285Z,16.30
2018-12-13T13:46:14.785Z,15.50
2018-12-13T13:48:42.295Z,16.77
2018-12-13T13:51:09.806Z,17.60
2018-12-13T13:53:37.321Z,16.97
2018-12-13T13:56:04.901Z,16.03
2018-12-13T13:58:32.415Z,15.00
2018-12-13T14:00:59.946Z,17.03
2018-12-13T14:03:27.469Z,14.87
2018-12-13T14:05:54.982Z,16.00
2018-12-13T14:08:22.506Z,15.93
2018-12-13T14:10:50.063Z,16.47
2018-12-13T14:13:18.078Z,17.90
2018-12-13T14:15:45.606Z,15.80
2018-12-13T14:18:13.225Z,14.50
2018-12-13T14:20:41.203Z,17.33
2018-12-13T14:23:08.791Z,16.07
2018-12-13T14:25:36.311Z,16.10
2018-12-13T14:28:04.073Z,14.67
2018-12-13T14:30:31.619Z,17.77
2018-12-13T14:32:59.133Z,15.97
2018-12-13T14:35:26.642Z,17.03
2018-12-13T14:37:54.168Z,16.97
2018-12-13T14:40:21.701Z,18.07
2018-12-13T14:42:49.221Z,18.03
2018-12-13T14:45:16.743Z,15.33
2018-12-13T14:54:27.906Z,18.57
2018-12-13T14:56:55.426Z,17.03
2018-12-13T14:59:22.945Z,17.23
2018-12-13T15:01:50.466Z,19.53
2018-12-13T15:04:17.976Z,17.80
2018-12-13T15:06:45.506Z,17.33
2018-12-13T15:09:13.018Z,20.10
2018-12-13T15:11:40.541Z,17.43
2018-12-13T15:14:08.105Z,18.80
2018-12-13T15:16:35.621Z,17.73
2018-12-13T15:19:03.138Z,15.40
2018-12-13T15:21:30.671Z,17.80
2018-12-13T15:23:58.194Z,19.03
2018-12-13T15:26:25.809Z,17.37
2018-12-13T15:28:53.331Z,18.40
2018-12-13T15:31:20.853Z,17.80
2018-12-13T15:33:48.408Z,17.87
2018-12-13T15:36:15.928Z,16.80
2018-12-13T15:38:43.584Z,15.60
2018-12-13T15:41:11.099Z,19.10
2018-12-13T15:43:38.821Z,16.73
2018-12-13T15:46:06.332Z,17.40
2018-12-13T15:48:33.954Z,18.93
2018-12-13T15:51:01.470Z,18.83
2018-12-13T15:53:28.985Z,24.80
2018-12-13T15:55:56.501Z,16.13
2018-12-13T15:58:26.319Z,19.67
2018-12-13T16:00:54.027Z,16.83
2018-12-13T16:03:21.563Z,20.13
2018-12-13T16:05:49.101Z,20.77
2018-12-13T16:08:16.631Z,19.27
2018-12-13T16:10:44.155Z,19.60
2018-12-13T16:13:11.669Z,20.67
2018-12-13T16:15:39.187Z,20.37
2018-12-13T16:18:06.697Z,19.97
2018-12-13T16:20:34.208Z,17.83
2018-12-13T16:23:01.718Z,20.63
2018-12-13T16:25:29.229Z,18.30
2018-12-13T16:27:56.744Z,22.17
2018-12-13T16:30:24.650Z,23.83
2018-12-13T16:32:52.167Z,22.30
2018-12-13T16:35:19.679Z,18.80
2018-12-13T16:37:47.209Z,19.33
2018-12-13T16:40:14.735Z,22.07
2018-12-13T16:42:42.250Z,21.23
2018-12-13T16:45:09.778Z,21.77
2018-12-13T16:47:37.302Z,21.70
2018-12-13T16:50:05.993Z,23.20
2018-12-13T16:52:33.566Z,24.17
2018-12-13T16:55:01.088Z,24.03
2018-12-13T16:57:28.607Z,19.00
2018-12-13T16:59:56.119Z,22.53
2018-12-13T17:02:23.639Z,22.57
2018-12-13T17:04:51.263Z,25.17
2018-12-13T17:07:18.792Z,16.07
2018-12-13T17:09:46.318Z,19.60
2018-12-13T17:12:13.885Z,19.97
2018-12-13T17:14:41.407Z,21.03
2018-12-13T17:17:08.918Z,23.33
2018-12-13T17:19:36.444Z,21.23
2018-12-13T17:22:03.953Z,19.13
2018-12-13T17:24:31.473Z,19.13
2018-12-13T17:26:58.993Z,20.70
2018-12-13T17:29:26.507Z,21.83
2018-12-13T17:31:54.037Z,17.50
2018-12-13T17:34:21.549Z,20.60
2018-12-13T17:36:49.075Z,20.43
2018-12-13T17:39:16.609Z,21.10
2018-12-13T17:41:44.145Z,21.27
2018-12-13T17:44:11.665Z,22.17
2018-12-13T17:46:39.207Z,19.40
2018-12-13T17:49:06.727Z,21.10
2018-12-13T17:51:34.293Z,24.67
2018-12-13T17:54:01.819Z,22.83
2018-12-13T17:56:29.349Z,19.90
2018-12-13T17:58:56.871Z,22.03
2018-12-13T18:01:24.382Z,23.47
2018-12-13T18:03:51.908Z,23.63
2018-12-13T18:06:19.479Z,19.97
2018-12-13T18:08:47.013Z,21.37
2018-12-13T18:11:14.519Z,22.00
2018-12-13T18:13:42.053Z,22.47
2018-12-13T18:16:09.567Z,22.80
2018-12-13T18:18:37.084Z,22.33
2018-12-13T18:21:04.881Z,19.93
2018-12-13T18:23:32.410Z,24.17
2018-12-13T18:25:59.914Z,22.73
2018-12-13T18:28:27.443Z,22.27
2018-12-13T18:30:54.978Z,22.33
2018-12-13T18:33:22.490Z,22.83
2018-12-13T18:35:50.023Z,24.77
2018-12-13T18:38:17.572Z,22.97
2018-12-13T18:40:45.178Z,25.53
2018-12-13T18:43:12.739Z,40.17
2018-12-13T18:45:40.266Z,24.17
2018-12-13T18:48:07.779Z,22.53
2018-12-13T18:50:35.426Z,23.33
2018-12-13T18:53:02.942Z,27.27
2018-12-13T18:55:30.455Z,23.07
2018-12-13T18:57:57.978Z,24.27
2018-12-13T19:00:25.528Z,20.57
2018-12-13T19:02:53.066Z,24.57
2018-12-13T19:05:21.158Z,23.30
2018-12-13T19:07:48.694Z,28.23
2018-12-13T19:10:16.234Z,23.37
2018-12-13T19:12:43.772Z,24.67
2018-12-13T19:15:11.311Z,25.60
2018-12-13T19:17:38.841Z,25.27
2018-12-13T19:20:06.528Z,22.85
2018-12-13T19:22:34.083Z,30.17
2018-12-13T19:25:01.740Z,27.22
2018-12-13T19:27:29.254Z,22.27
2018-12-13T19:29:56.780Z,22.63
2018-12-13T19:32:24.337Z,24.18
2018-12-13T19:34:51.867Z,23.85
2018-12-13T19:37:19.436Z,28.97
2018-12-13T19:39:47.015Z,27.52
2018-12-13T19:42:14.569Z,24.47
2018-12-13T19:44:42.135Z,26.17
2018-12-13T19:47:09.675Z,25.62
2018-12-13T19:49:37.203Z,22.45
2018-12-13T19:52:05.097Z,27.62
2018-12-13T19:54:32.615Z,24.85
2018-12-13T19:57:00.506Z,28.37
2018-12-13T19:59:28.061Z,28.80
2018-12-13T20:01:55.623Z,25.50
2018-12-13T20:04:23.150Z,27.95
2018-12-13T20:06:50.687Z,27.85
2018-12-13T20:09:18.515Z,26.17
2018-12-13T20:11:46.033Z,28.85
2018-12-13T20:14:13.545Z,26.90
2018-12-13T20:16:41.325Z,26.42
2018-12-13T20:19:08.858Z,27.27
2018-12-13T20:21:36.389Z,28.30
2018-12-13T20:24:03.915Z,28.87
2018-12-13T20:26:31.770Z,26.77
2018-12-13T20:28:59.308Z,29.10
2018-12-13T20:31:26.825Z,26.25
2018-12-13T20:33:54.350Z,27.15
2018-12-13T20:36:22.013Z,27.30
2018-12-13T20:38:49.532Z,30.32
2018-12-13T20:41:17.138Z,28.90
2018-12-13T20:43:44.657Z,27.00
2018-12-13T20:46:12.285Z,27.55
2018-12-13T20:48:39.801Z,29.85
2018-12-13T20:51:07.375Z,29.27
2018-12-13T20:53:34.913Z,29.37
2018-12-13T20:56:02.516Z,26.42
2018-12-13T20:58:30.042Z,28.25
2018-12-13T21:00:57.558Z,25.60
2018-12-13T21:03:25.070Z,25.15
2018-12-13T21:05:52.590Z,26.62
2018-12-13T21:08:20.111Z,27.58
2018-12-13T21:10:47.651Z,28.42
2018-12-13T21:13:15.180Z,25.68
2018-12-13T21:15:42.738Z,29.07
2018-12-13T21:20:50.582Z,29.92
2018-12-13T21:23:18.135Z,28.52
2018-12-13T21:25:45.656Z,29.10
2018-12-13T21:28:13.170Z,30.43
2018-12-13T21:30:40.697Z,28.15
2018-12-13T21:33:08.211Z,27.02
2018-12-13T21:35:35.735Z,29.67
2018-12-13T21:38:03.243Z,31.50
2018-12-13T21:40:30.774Z,31.82
2018-12-13T21:42:58.297Z,27.50
2018-12-13T21:45:25.815Z,29.87
2018-12-13T21:47:53.731Z,27.05
2018-12-13T21:50:21.506Z,28.42
2018-12-13T21:52:49.013Z,34.80
2018-12-13T21:55:16.632Z,26.42
2018-12-13T21:57:44.181Z,31.65
2018-12-13T22:00:11.698Z,29.70
2018-12-13T22:02:39.219Z,33.18
2018-12-13T22:05:06.742Z,31.12
2018-12-13T22:07:34.293Z,31.82
2018-12-13T22:10:01.817Z,29.70
2018-12-13T22:12:29.346Z,28.87
2018-12-13T22:15:02.364Z,33.75
2018-12-13T22:17:26.413Z,31.12
2018-12-13T22:19:53.950Z,30.68
2018-12-13T22:22:21.490Z,30.48
2018-12-13T22:24:49.015Z,29.12
2018-12-13T22:27:16.558Z,32.17
2018-12-13T22:29:44.124Z,30.92
2018-12-13T22:32:11.714Z,32.83
2018-12-13T22:34:39.412Z,34.03
2018-12-13T22:37:07.311Z,30.00
2018-12-13T22:39:34.838Z,32.73
2018-12-13T22:42:02.373Z,31.23
2018-12-13T22:44:29.926Z,31.65
2018-12-13T22:46:57.641Z,30.62
2018-12-13T22:49:25.159Z,28.35
2018-12-13T22:51:52.687Z,30.45
2018-12-13T22:54:20.216Z,30.55
2018-12-13T22:56:47.750Z,31.27
2018-12-13T22:59:15.270Z,30.77
2018-12-13T23:01:42.793Z,28.38
2018-12-13T23:04:10.325Z,30.32
2018-12-13T23:06:37.849Z,30.68
2018-12-13T23:09:06.129Z,26.33
2018-12-13T23:11:34.963Z,31.75
2018-12-13T23:14:02.538Z,30.97
2018-12-13T23:16:30.061Z,30.20
2018-12-13T23:18:57.585Z,31.00
2018-12-13T23:21:25.305Z,30.40
2018-12-13T23:23:52.974Z,31.62
2018-12-13T23:26:20.593Z,32.40
2018-12-13T23:28:48.131Z,29.57
2018-12-13T23:31:15.650Z,29.10
2018-12-13T23:33:43.173Z,29.98
2018-12-13T23:36:10.687Z,30.70
2018-12-13T23:38:38.209Z,30.75
2018-12-13T23:41:05.744Z,31.85
2018-12-13T23:43:33.271Z,27.77
2018-12-13T23:46:00.799Z,26.45
2018-12-13T23:48:28.345Z,26.80
2018-12-13T23:50:55.874Z,28.40
2018-12-13T23:53:23.767Z,25.80
2018-12-13T23:55:51.286Z,25.68
2018-12-13T23:58:18.837Z,25.82
